createdAt,value
2018-06-15T00:01:25.440Z,100820.00
2018-06-15T00:03:55.564Z,100819.00
2018-06-15T00:06:25.712Z,100823.00
2018-06-15T00:08:55.605Z,100822.00
2018-06-15T00:11:25.385Z,100818.00
2018-06-15T00:13:55.459Z,100815.00
2018-06-15T00:16:25.559Z,100813.00
2018-06-15T00:18:55.652Z,100820.00
2018-06-15T00:21:25.855Z,100820.00
2018-06-15T00:23:56.151Z,100822.00
2018-06-15T00:26:26.062Z,100815.00
2018-06-15T00:28:55.900Z,100817.00
2018-06-15T00:31:25.911Z,100817.00
2018-06-15T00:33:56.111Z,100820.00
2018-06-15T00:36:26.272Z,100817.00
2018-06-15T00:38:56.261Z,100816.00
2018-06-15T00:41:26.536Z,100818.00
2018-06-15T00:43:56.516Z,100818.00
2018-06-15T00:46:26.608Z,100818.00
2018-06-15T00:48:56.812Z,100813.00
2018-06-15T00:51:26.949Z,100813.00
2018-06-15T00:53:57.106Z,100808.00
2018-06-15T00:56:27.346Z,100809.00
2018-06-15T00:58:57.839Z,100807.00
2018-06-15T01:01:27.761Z,100806.00
2018-06-15T01:03:57.862Z,100807.00
2018-06-15T01:06:27.880Z,100805.00
2018-06-15T01:08:57.869Z,100806.00
2018-06-15T01:11:28.000Z,100808.00
2018-06-15T01:13:58.076Z,100806.00
2018-06-15T01:16:28.284Z,100804.00
2018-06-15T01:18:58.556Z,100801.00
2018-06-15T01:21:28.611Z,100807.00
2018-06-15T01:23:58.874Z,100802.00
2018-06-15T01:26:28.796Z,100803.00
2018-06-15T01:28:58.954Z,100799.00
2018-06-15T01:31:28.815Z,100800.00
2018-06-15T01:33:59.351Z,100802.00
2018-06-15T01:36:29.551Z,100800.00
2018-06-15T01:38:59.529Z,100800.00
2018-06-15T01:41:29.274Z,100794.00
2018-06-15T01:43:59.473Z,100791.00
2018-06-15T01:46:29.323Z,100794.00
2018-06-15T01:48:59.276Z,100792.00
2018-06-15T01:51:29.151Z,100792.00
2018-06-15T01:53:59.288Z,100790.00
2018-06-15T01:56:29.495Z,100792.00
2018-06-15T01:58:59.492Z,100792.00
2018-06-15T02:01:29.921Z,100792.00
2018-06-15T02:04:00.617Z,100794.00
2018-06-15T02:06:30.922Z,100794.00
2018-06-15T02:09:01.744Z,100790.00
2018-06-15T02:11:32.589Z,100787.00
2018-06-15T02:14:02.295Z,100789.00
2018-06-15T02:20:22.295Z,100786.00
2018-06-15T02:22:52.227Z,100783.00
2018-06-15T02:25:21.986Z,100786.00
2018-06-15T02:27:51.912Z,100786.00
2018-06-15T02:30:22.007Z,100785.00
2018-06-15T02:32:52.283Z,100782.00
2018-06-15T02:35:22.422Z,100784.00
2018-06-15T02:37:52.852Z,100785.00
2018-06-15T02:40:22.844Z,100789.00
2018-06-15T02:42:52.922Z,100789.00
2018-06-15T02:45:22.987Z,100791.00
2018-06-15T02:47:53.098Z,100792.00
2018-06-15T02:50:23.123Z,100795.00
2018-06-15T02:52:53.312Z,100798.00
2018-06-15T02:55:23.500Z,100800.00
2018-06-15T02:57:53.808Z,100796.00
2018-06-15T03:00:24.638Z,100792.00
2018-06-15T03:02:54.722Z,100791.00
2018-06-15T03:05:25.082Z,100790.00
2018-06-15T03:07:55.101Z,100789.00
2018-06-15T03:10:25.168Z,100791.00
2018-06-15T03:12:55.092Z,100794.00
2018-06-15T03:15:25.046Z,100792.00
2018-06-15T03:17:54.849Z,100791.00
2018-06-15T03:20:24.970Z,100802.00
2018-06-15T03:22:54.881Z,100799.00
2018-06-15T03:25:24.730Z,100802.00
2018-06-15T03:27:54.773Z,100808.00
2018-06-15T03:30:24.911Z,100808.00
2018-06-15T03:32:54.875Z,100813.00
2018-06-15T03:35:25.157Z,100817.00
2018-06-15T03:37:55.085Z,100809.00
2018-06-15T03:40:25.549Z,100806.00
2018-06-15T03:42:55.654Z,100813.00
2018-06-15T03:45:25.572Z,100818.00
2018-06-15T03:47:55.550Z,100822.00
2018-06-15T03:50:25.401Z,100822.00
2018-06-15T03:52:55.562Z,100828.00
2018-06-15T03:55:25.615Z,100834.00
2018-06-15T03:57:55.462Z,100833.00
2018-06-15T04:00:25.546Z,100834.00
2018-06-15T04:02:55.953Z,100835.00
2018-06-15T04:05:26.251Z,100837.00
2018-06-15T04:07:56.258Z,100838.00
2018-06-15T04:10:26.423Z,100836.00
2018-06-15T04:12:56.482Z,100841.00
2018-06-15T04:15:27.363Z,100842.00
2018-06-15T04:18:02.868Z,100838.00
2018-06-15T04:20:33.065Z,100840.00
2018-06-15T04:23:03.378Z,100838.00
2018-06-15T04:25:33.976Z,100838.00
2018-06-15T04:28:04.272Z,100833.00
2018-06-15T04:30:34.291Z,100830.00
2018-06-15T04:33:04.417Z,100835.00
2018-06-15T04:35:34.356Z,100840.00
2018-06-15T04:38:04.306Z,100843.00
2018-06-15T04:40:34.244Z,100848.00
2018-06-15T04:43:03.944Z,100848.00
2018-06-15T04:45:34.300Z,100848.00
2018-06-15T04:48:05.003Z,100846.00
2018-06-15T04:50:35.417Z,100849.00
2018-06-15T04:53:06.044Z,100855.00
2018-06-15T04:55:36.402Z,100854.00
2018-06-15T04:58:07.081Z,100853.00
2018-06-15T05:00:37.669Z,100849.00
2018-06-15T05:03:07.889Z,100849.00
2018-06-15T05:05:38.997Z,100842.00
2018-06-15T05:08:08.879Z,100850.00
2018-06-15T05:10:39.352Z,100851.00
2018-06-15T05:13:10.147Z,100847.00
2018-06-15T05:15:41.012Z,100849.00
2018-06-15T05:18:11.023Z,100849.00
2018-06-15T05:20:41.728Z,100853.00
2018-06-15T05:23:11.875Z,100854.00
2018-06-15T05:25:42.610Z,100858.00
2018-06-15T05:28:13.368Z,100853.00
2018-06-15T05:30:44.058Z,100857.00
2018-06-15T05:33:14.171Z,100854.00
2018-06-15T05:35:45.107Z,100860.00
2018-06-15T05:38:15.162Z,100862.00
2018-06-15T05:40:45.731Z,100866.00
2018-06-15T05:43:15.901Z,100864.00
2018-06-15T05:45:46.930Z,100861.00
2018-06-15T05:48:17.188Z,100865.00
2018-06-15T05:50:47.743Z,100868.00
2018-06-15T05:53:18.561Z,100863.00
2018-06-15T05:55:48.739Z,100863.00
2018-06-15T05:58:19.066Z,100860.00
2018-06-15T06:00:50.380Z,100867.00
2018-06-15T06:03:20.628Z,100869.00
2018-06-15T06:05:50.641Z,100863.00
2018-06-15T06:08:21.687Z,100876.00
2018-06-15T06:10:51.877Z,100879.00
2018-06-15T06:13:22.705Z,100875.00
2018-06-15T06:15:52.895Z,100874.00
2018-06-15T06:18:23.178Z,100873.00
2018-06-15T06:20:53.782Z,100879.00
2018-06-15T06:23:24.204Z,100882.00
2018-06-15T06:25:54.943Z,100891.00
2018-06-15T06:28:25.236Z,100895.00
2018-06-15T06:30:56.417Z,100897.00
2018-06-15T06:33:26.671Z,100901.00
2018-06-15T06:35:57.091Z,100899.00
2018-06-15T06:38:27.449Z,100900.00
2018-06-15T06:40:58.668Z,100902.00
2018-06-15T06:43:28.902Z,100903.00
2018-06-15T06:45:59.594Z,100905.00
2018-06-15T06:48:29.805Z,100906.00
2018-06-15T06:51:00.374Z,100898.00
2018-06-15T06:53:30.842Z,100898.00
2018-06-15T06:56:01.482Z,100897.00
2018-06-15T06:58:32.191Z,100892.00
2018-06-15T07:01:02.743Z,100893.00
2018-06-15T07:03:33.028Z,100889.00
2018-06-15T07:06:03.313Z,100888.00
2018-06-15T07:08:34.214Z,100891.00
2018-06-15T07:11:04.466Z,100890.00
2018-06-15T07:13:35.193Z,100890.00
2018-06-15T07:16:05.923Z,100893.00
2018-06-15T07:18:36.372Z,100894.00
2018-06-15T07:21:06.685Z,100895.00
2018-06-15T07:23:37.091Z,100898.00
2018-06-15T07:26:07.815Z,100897.00
2018-06-15T07:28:38.085Z,100895.00
2018-06-15T07:31:08.580Z,100898.00
2018-06-15T07:33:39.277Z,100893.00
2018-06-15T07:36:10.227Z,100889.00
2018-06-15T07:38:40.468Z,100891.00
2018-06-15T07:41:11.015Z,100888.00
2018-06-15T07:43:41.465Z,100893.00
2018-06-15T07:46:11.463Z,100896.00
2018-06-15T07:48:42.442Z,100899.00
2018-06-15T07:51:12.949Z,100896.00
2018-06-15T07:53:43.812Z,100895.00
2018-06-15T07:56:14.722Z,100894.00
2018-06-15T07:58:44.877Z,100893.00
2018-06-15T08:01:15.239Z,100896.00
2018-06-15T08:03:50.592Z,100888.00
2018-06-15T08:06:20.779Z,100891.00
2018-06-15T08:08:50.677Z,100899.00
2018-06-15T08:11:20.775Z,100894.00
2018-06-15T08:13:50.777Z,100891.00
2018-06-15T08:16:21.353Z,100890.00
2018-06-15T08:18:51.464Z,100893.00
2018-06-15T08:21:21.260Z,100895.00
2018-06-15T08:23:51.229Z,100891.00
2018-06-15T08:26:21.189Z,100893.00
2018-06-15T08:28:51.248Z,100887.00
2018-06-15T08:31:21.465Z,100890.00
2018-06-15T08:33:51.987Z,100886.00
2018-06-15T08:36:22.160Z,100888.00
2018-06-15T08:38:52.831Z,100890.00
2018-06-15T08:41:23.087Z,100889.00
2018-06-15T08:43:53.789Z,100888.00
2018-06-15T08:46:24.423Z,100887.00
2018-06-15T08:48:54.988Z,100889.00
2018-06-15T09:00:23.844Z,100887.00
2018-06-15T09:02:54.153Z,100879.00
2018-06-15T09:05:24.828Z,100879.00
2018-06-15T09:07:55.266Z,100884.00
2018-06-15T09:10:25.489Z,100880.00
2018-06-15T09:12:56.443Z,100880.00
2018-06-15T09:15:26.693Z,100879.00
2018-06-15T09:17:57.616Z,100876.00
2018-06-15T09:20:28.027Z,100876.00
2018-06-15T09:22:58.257Z,100873.00
2018-06-15T09:25:28.499Z,100869.00
2018-06-15T09:27:58.564Z,100870.00
2018-06-15T09:30:28.743Z,100872.00
2018-06-15T09:32:58.888Z,100864.00
2018-06-15T09:35:29.055Z,100861.00
2018-06-15T09:37:59.127Z,100860.00
2018-06-15T09:40:29.319Z,100860.00
2018-06-15T09:42:59.429Z,100858.00
2018-06-15T09:45:29.704Z,100836.00
2018-06-15T09:47:59.883Z,100867.00
2018-06-15T09:50:30.364Z,100867.00
2018-06-15T09:53:00.332Z,100866.00
2018-06-15T09:55:30.572Z,100869.00
2018-06-15T09:58:00.736Z,100861.00
2018-06-15T10:00:35.950Z,100866.00
2018-06-15T10:03:06.078Z,100865.00
2018-06-15T10:05:36.395Z,100857.00
2018-06-15T10:08:06.482Z,100857.00
2018-06-15T10:10:36.706Z,100861.00
2018-06-15T10:13:06.909Z,100861.00
2018-06-15T10:15:37.888Z,100857.00
2018-06-15T10:18:08.245Z,100856.00
2018-06-15T10:20:38.324Z,100852.00
2018-06-15T10:23:08.489Z,100856.00
2018-06-15T10:25:38.700Z,100856.00
2018-06-15T10:28:09.159Z,100858.00
2018-06-15T10:30:39.458Z,100858.00
2018-06-15T10:33:10.032Z,100860.00
2018-06-15T10:35:40.473Z,100861.00
2018-06-15T10:38:10.868Z,100857.00
2018-06-15T10:40:41.042Z,100854.00
2018-06-15T10:43:11.347Z,100855.00
2018-06-15T10:45:41.881Z,100849.00
2018-06-15T10:48:13.158Z,100847.00
2018-06-15T10:50:43.480Z,100846.00
2018-06-15T10:53:13.835Z,100847.00
2018-06-15T10:55:44.136Z,100846.00
2018-06-15T10:58:14.398Z,100852.00
2018-06-15T11:00:44.691Z,100844.00
2018-06-15T11:03:14.872Z,100843.00
2018-06-15T11:05:44.882Z,100843.00
2018-06-15T11:08:15.963Z,100845.00
2018-06-15T11:10:46.185Z,100836.00
2018-06-15T11:13:16.336Z,100842.00
2018-06-15T11:15:46.418Z,100843.00
2018-06-15T11:18:16.789Z,100839.00
2018-06-15T11:20:46.903Z,100842.00
2018-06-15T11:23:17.299Z,100834.00
2018-06-15T11:25:47.399Z,100830.00
2018-06-15T11:28:17.565Z,100830.00
2018-06-15T11:30:47.881Z,100831.00
2018-06-15T11:33:18.033Z,100826.00
2018-06-15T11:35:48.260Z,100826.00
2018-06-15T11:38:18.406Z,100827.00
2018-06-15T11:40:48.555Z,100830.00
2018-06-15T11:43:18.772Z,100830.00
2018-06-15T11:45:49.009Z,100834.00
2018-06-15T11:48:19.202Z,100828.00
2018-06-15T11:50:49.319Z,100827.00
2018-06-15T11:53:19.490Z,100824.00
2018-06-15T11:55:49.728Z,100827.00
2018-06-15T11:58:19.811Z,100823.00
2018-06-15T12:00:50.325Z,100819.00
2018-06-15T12:03:20.473Z,100816.00
2018-06-15T12:05:51.056Z,100810.00
2018-06-15T12:08:21.770Z,100804.00
2018-06-15T12:10:51.918Z,100795.00
2018-06-15T12:13:22.239Z,100794.00
2018-06-15T12:15:52.377Z,100795.00
2018-06-15T12:18:22.608Z,100786.00
2018-06-15T12:20:52.933Z,100792.00
2018-06-15T12:23:23.032Z,100789.00
2018-06-15T12:25:53.279Z,100785.00
2018-06-15T12:28:23.643Z,100777.00
2018-06-15T12:30:53.949Z,100784.00
2018-06-15T12:33:24.208Z,100781.00
2018-06-15T12:35:54.326Z,100780.00
2018-06-15T12:38:25.003Z,100783.00
2018-06-15T12:40:55.113Z,100775.00
2018-06-15T12:43:25.303Z,100776.00
2018-06-15T12:45:55.751Z,100778.00
2018-06-15T12:48:25.915Z,100781.00
2018-06-15T12:50:56.072Z,100784.00
2018-06-15T12:53:26.418Z,100783.00
2018-06-15T12:55:56.534Z,100784.00
2018-06-15T12:58:26.675Z,100782.00
2018-06-15T13:00:56.746Z,100783.00
2018-06-15T13:03:26.785Z,100786.00
2018-06-15T13:05:57.196Z,100780.00
2018-06-15T13:08:27.302Z,100784.00
2018-06-15T13:10:57.635Z,100783.00
2018-06-15T13:13:27.694Z,100783.00
2018-06-15T13:15:57.849Z,100777.00
2018-06-15T13:18:28.236Z,100775.00
2018-06-15T13:20:58.473Z,100776.00
2018-06-15T13:23:28.494Z,100778.00
2018-06-15T13:25:58.795Z,100774.00
2018-06-15T13:28:28.930Z,100770.00
2018-06-15T13:30:59.410Z,100769.00
2018-06-15T13:33:29.608Z,100768.00
2018-06-15T13:35:59.808Z,100771.00
2018-06-15T13:38:29.969Z,100770.00
2018-06-15T13:41:00.134Z,100768.00
2018-06-15T13:43:30.189Z,100768.00
2018-06-15T13:46:00.091Z,100767.00
2018-06-15T13:48:30.389Z,100767.00
2018-06-15T13:51:00.659Z,100767.00
2018-06-15T13:53:31.056Z,100767.00
2018-06-15T13:56:01.534Z,100765.00
2018-06-15T13:58:32.011Z,100768.00
2018-06-15T14:01:02.471Z,100763.00
2018-06-15T14:03:32.621Z,100756.00
2018-06-15T14:06:03.018Z,100759.00
2018-06-15T14:08:33.436Z,100753.00
2018-06-15T14:11:03.556Z,100758.00
2018-06-15T14:13:33.580Z,100749.00
2018-06-15T14:16:03.787Z,100751.00
2018-06-15T14:18:34.006Z,100750.00
2018-06-15T14:21:04.259Z,100748.00
2018-06-15T14:23:34.268Z,100751.00
2018-06-15T14:26:04.380Z,100748.00
2018-06-15T14:28:34.565Z,100743.00
2018-06-15T14:31:04.751Z,100734.00
2018-06-15T14:33:34.880Z,100735.00
2018-06-15T14:36:05.066Z,100731.00
2018-06-15T14:38:35.470Z,100728.00
2018-06-15T14:41:06.001Z,100724.00
2018-06-15T14:43:36.232Z,100732.00
2018-06-15T14:46:06.870Z,100731.00
2018-06-15T14:48:37.160Z,100733.00
2018-06-15T14:51:07.269Z,100737.00
2018-06-15T14:53:37.596Z,100730.00
2018-06-15T14:56:07.905Z,100729.00
2018-06-15T14:58:38.104Z,100732.00
2018-06-15T15:01:08.181Z,100728.00
2018-06-15T15:03:38.528Z,100728.00
2018-06-15T15:06:08.621Z,100720.00
2018-06-15T15:08:38.677Z,100727.00
2018-06-15T15:11:08.704Z,100726.00
2018-06-15T15:13:39.065Z,100716.00
2018-06-15T15:16:09.141Z,100717.00
2018-06-15T15:18:39.326Z,100718.00
2018-06-15T15:21:09.609Z,100717.00
2018-06-15T15:23:39.871Z,100722.00
2018-06-15T15:26:10.183Z,100728.00
2018-06-15T15:28:40.321Z,100720.00
2018-06-15T15:31:10.389Z,100728.00
2018-06-15T15:33:40.656Z,100722.00
2018-06-15T15:36:10.840Z,100728.00
2018-06-15T15:38:41.181Z,100727.00
2018-06-15T15:41:11.315Z,100725.00
2018-06-15T15:43:41.329Z,100720.00
2018-06-15T15:46:11.701Z,100717.00
2018-06-15T15:48:41.823Z,100711.00
2018-06-15T15:51:12.119Z,100708.00
2018-06-15T15:53:42.201Z,100704.00
2018-06-15T15:56:12.558Z,100699.00
2018-06-15T15:58:42.655Z,100698.00
2018-06-15T16:01:12.770Z,100695.00
2018-06-15T16:03:43.125Z,100689.00
2018-06-15T16:06:13.003Z,100688.00
2018-06-15T16:08:43.461Z,100686.00
2018-06-15T16:11:13.636Z,100682.00
2018-06-15T16:13:43.908Z,100681.00
2018-06-15T16:16:14.033Z,100684.00
2018-06-15T16:18:44.271Z,100679.00
2018-06-15T16:21:14.504Z,100678.00
2018-06-15T16:23:44.760Z,100675.00
2018-06-15T16:26:14.781Z,100671.00
2018-06-15T16:28:44.872Z,100669.00
2018-06-15T16:31:15.238Z,100671.00
2018-06-15T16:33:45.559Z,100665.00
2018-06-15T16:36:15.769Z,100669.00
2018-06-15T16:38:45.730Z,100664.00
2018-06-15T16:41:15.752Z,100668.00
2018-06-15T16:43:46.253Z,100672.00
2018-06-15T16:46:16.299Z,100683.00
2018-06-15T16:48:46.640Z,100683.00
2018-06-15T16:51:16.721Z,100685.00
2018-06-15T16:53:47.011Z,100691.00
2018-06-15T16:56:17.056Z,100695.00
2018-06-15T16:58:47.284Z,100700.00
2018-06-15T17:01:17.421Z,100690.00
2018-06-15T17:03:47.716Z,100678.00
2018-06-15T17:06:17.821Z,100679.00
2018-06-15T17:08:48.258Z,100687.00
2018-06-15T17:11:18.358Z,100691.00
2018-06-15T17:13:48.477Z,100690.00
2018-06-15T17:16:18.827Z,100696.00
2018-06-15T17:18:48.791Z,100700.00
2018-06-15T17:21:19.170Z,100700.00
2018-06-15T17:23:49.316Z,100709.00
2018-06-15T17:26:19.324Z,100710.00
2018-06-15T17:28:49.450Z,100711.00
2018-06-15T17:31:19.799Z,100713.00
2018-06-15T17:33:49.936Z,100711.00
2018-06-15T17:36:20.211Z,100721.00
2018-06-15T17:38:50.252Z,100716.00
2018-06-15T17:41:20.254Z,100726.00
2018-06-15T17:43:50.204Z,100724.00
2018-06-15T17:46:20.556Z,100726.00
2018-06-15T17:48:51.017Z,100731.00
2018-06-15T17:51:21.491Z,100733.00
2018-06-15T17:53:51.579Z,100734.00
2018-06-15T17:56:21.897Z,100733.00
2018-06-15T17:58:52.059Z,100734.00
2018-06-15T18:01:22.308Z,100733.00
2018-06-15T18:03:52.404Z,100733.00
2018-06-15T18:06:22.576Z,100735.00
2018-06-15T18:08:53.017Z,100740.00
2018-06-15T18:11:22.805Z,100743.00
2018-06-15T18:13:53.231Z,100738.00
2018-06-15T18:16:23.554Z,100733.00
2018-06-15T18:18:53.941Z,100737.00
2018-06-15T18:21:24.082Z,100735.00
2018-06-15T18:23:54.369Z,100733.00
2018-06-15T18:26:24.733Z,100736.00
2018-06-15T18:28:54.811Z,100738.00
2018-06-15T18:31:25.247Z,100736.00
2018-06-15T18:33:57.240Z,100738.00
2018-06-15T18:36:27.445Z,100720.00
2018-06-15T18:38:57.394Z,100742.00
2018-06-15T18:41:27.786Z,100737.00
2018-06-15T18:43:58.549Z,100738.00
2018-06-15T18:46:28.549Z,100739.00
2018-06-15T18:48:58.935Z,100737.00
2018-06-15T18:51:29.105Z,100737.00
2018-06-15T18:53:59.518Z,100736.00
2018-06-15T18:56:29.700Z,100736.00
2018-06-15T18:59:00.081Z,100735.00
2018-06-15T19:01:30.451Z,100734.00
2018-06-15T19:04:00.846Z,100735.00
2018-06-15T19:06:31.181Z,100739.00
2018-06-15T19:09:01.356Z,100737.00
2018-06-15T19:11:31.604Z,100737.00
2018-06-15T19:14:01.741Z,100737.00
2018-06-15T19:16:32.033Z,100744.00
2018-06-15T19:19:02.153Z,100742.00
2018-06-15T19:21:32.311Z,100737.00
2018-06-15T19:24:02.700Z,100737.00
2018-06-15T19:26:33.078Z,100737.00
2018-06-15T19:29:03.228Z,100741.00
2018-06-15T19:31:33.236Z,100744.00
2018-06-15T19:34:03.359Z,100745.00
2018-06-15T19:36:33.510Z,100744.00
2018-06-15T19:39:04.631Z,100746.00
2018-06-15T19:41:34.694Z,100744.00
2018-06-15T19:44:05.013Z,100744.00
2018-06-15T19:46:35.669Z,100746.00
2018-06-15T19:49:05.831Z,100747.00
2018-06-15T19:51:36.140Z,100743.00
2018-06-15T19:54:07.287Z,100748.00
2018-06-15T19:56:37.996Z,100747.00
2018-06-15T19:59:08.264Z,100742.00
2018-06-15T20:01:38.818Z,100746.00
2018-06-15T20:04:09.414Z,100740.00
2018-06-15T20:06:39.737Z,100739.00
2018-06-15T20:09:10.111Z,100735.00
2018-06-15T20:11:40.151Z,100741.00
2018-06-15T20:14:10.395Z,100746.00
2018-06-15T20:16:40.753Z,100743.00
2018-06-15T20:19:10.767Z,100736.00
2018-06-15T20:21:40.896Z,100730.00
2018-06-15T20:24:11.247Z,100730.00
2018-06-15T20:26:41.575Z,100738.00
2018-06-15T20:29:12.415Z,100739.00
2018-06-15T20:31:42.766Z,100740.00
2018-06-15T20:34:13.271Z,100741.00
2018-06-15T20:36:43.540Z,100741.00
2018-06-15T20:39:13.899Z,100740.00
2018-06-15T20:41:44.374Z,100746.00
2018-06-15T20:44:14.820Z,100742.00
2018-06-15T20:46:45.348Z,100741.00
2018-06-15T20:49:16.076Z,100747.00
2018-06-15T20:51:46.393Z,100743.00
2018-06-15T20:54:17.409Z,100738.00
2018-06-15T20:56:47.601Z,100742.00
2018-06-15T20:59:18.009Z,100744.00
2018-06-15T21:01:48.946Z,100741.00
2018-06-15T21:04:19.073Z,100736.00
2018-06-15T21:06:49.462Z,100735.00
2018-06-15T21:09:20.415Z,100738.00
2018-06-15T21:11:50.534Z,100743.00
2018-06-15T21:14:20.911Z,100739.00
2018-06-15T21:16:51.970Z,100735.00
2018-06-15T21:19:22.105Z,100731.00
2018-06-15T21:21:52.677Z,100733.00
2018-06-15T21:24:23.218Z,100738.00
2018-06-15T21:26:53.856Z,100733.00
2018-06-15T21:29:24.173Z,100732.00
2018-06-15T21:31:55.024Z,100733.00
2018-06-15T21:34:25.577Z,100729.00
2018-06-15T21:36:55.792Z,100730.00
2018-06-15T21:39:26.835Z,100730.00
2018-06-15T21:41:56.900Z,100735.00
2018-06-15T21:44:27.305Z,100738.00
2018-06-15T21:46:57.745Z,100733.00
2018-06-15T21:49:28.455Z,100731.00
2018-06-15T21:51:58.670Z,100730.00
2018-06-15T21:54:29.470Z,100729.00
2018-06-15T21:56:59.682Z,100725.00
2018-06-15T21:59:30.321Z,100728.00
2018-06-15T22:02:01.013Z,100729.00
2018-06-15T22:04:31.547Z,100727.00
2018-06-15T22:07:02.062Z,100726.00
2018-06-15T22:09:32.693Z,100728.00
2018-06-15T22:12:03.125Z,100724.00
2018-06-15T22:14:33.346Z,100722.00
2018-06-15T22:17:03.565Z,100720.00
2018-06-15T22:19:34.528Z,100715.00
2018-06-15T22:22:04.837Z,100712.00
2018-06-15T22:24:35.224Z,100713.00
2018-06-15T22:27:05.379Z,100715.00
2018-06-15T22:29:36.404Z,100722.00
2018-06-15T22:32:06.858Z,100719.00
2018-06-15T22:34:37.702Z,100720.00
2018-06-15T22:37:07.976Z,100722.00
2018-06-15T22:39:38.353Z,100720.00
2018-06-15T22:42:08.915Z,100720.00
2018-06-15T22:44:39.614Z,100728.00
2018-06-15T22:47:10.216Z,100733.00
2018-06-15T22:49:40.784Z,100730.00
2018-06-15T22:52:11.117Z,100726.00
2018-06-15T22:54:41.413Z,100733.00
2018-06-15T22:57:12.441Z,100732.00
2018-06-15T22:59:42.525Z,100733.00
2018-06-15T23:02:12.930Z,100735.00
2018-06-15T23:04:43.977Z,100735.00
2018-06-15T23:07:14.555Z,100737.00
2018-06-15T23:09:44.650Z,100739.00
2018-06-15T23:12:14.861Z,100735.00
2018-06-15T23:14:45.819Z,100735.00
2018-06-15T23:17:16.622Z,100731.00
2018-06-15T23:19:47.148Z,100729.00
2018-06-15T23:22:17.038Z,100729.00
2018-06-15T23:24:47.652Z,100734.00
2018-06-15T23:27:18.394Z,100734.00
2018-06-15T23:29:48.637Z,100735.00
2018-06-15T23:32:19.428Z,100740.00
2018-06-15T23:34:49.512Z,100742.00
2018-06-15T23:37:20.043Z,100736.00
2018-06-15T23:39:50.691Z,100742.00
2018-06-15T23:42:20.962Z,100737.00
2018-06-15T23:44:52.049Z,100740.00
2018-06-15T23:47:22.223Z,100739.00
2018-06-15T23:49:53.097Z,100738.00
2018-06-15T23:52:23.496Z,100736.00
2018-06-15T23:54:53.667Z,100735.00
2018-06-15T23:57:23.992Z,100736.00
2018-06-15T23:59:54.770Z,100740.00
